createdAt,value
2019-02-02T00:02:05.073Z,62.17
2019-02-02T00:04:37.165Z,63.00
2019-02-02T00:07:07.705Z,60.13
2019-02-02T00:09:38.212Z,62.37
2019-02-02T00:12:08.965Z,61.10
2019-02-02T00:14:39.469Z,61.93
2019-02-02T00:17:10.001Z,59.83
2019-02-02T00:19:41.537Z,60.03
2019-02-02T00:22:11.935Z,60.77
2019-02-02T00:24:42.435Z,61.07
2019-02-02T00:27:12.987Z,61.77
2019-02-02T00:29:43.444Z,61.90
2019-02-02T00:32:14.171Z,60.73
2019-02-02T00:34:44.643Z,61.23
2019-02-02T00:37:15.132Z,60.17
2019-02-02T00:39:45.738Z,61.77
2019-02-02T00:42:16.236Z,61.27
2019-02-02T00:44:46.694Z,60.73
2019-02-02T00:47:17.353Z,60.30
2019-02-02T00:49:47.830Z,60.47
2019-02-02T00:52:18.283Z,60.03
2019-02-02T00:54:48.805Z,61.03
2019-02-02T00:57:19.309Z,60.57
2019-02-02T00:59:49.839Z,59.67
2019-02-02T01:02:20.345Z,58.80
2019-02-02T01:04:50.917Z,58.33
2019-02-02T01:07:22.822Z,58.73
2019-02-02T01:09:53.346Z,58.97
2019-02-02T01:12:23.861Z,58.93
2019-02-02T01:14:54.365Z,57.67
2019-02-02T01:17:24.837Z,58.80
2019-02-02T01:19:55.299Z,57.27
2019-02-02T01:22:26.093Z,57.40
2019-02-02T01:24:56.708Z,57.23
2019-02-02T01:27:27.337Z,58.00
2019-02-02T01:29:57.825Z,57.53
2019-02-02T01:32:28.485Z,57.13
2019-02-02T01:34:58.974Z,56.93
2019-02-02T01:37:29.377Z,55.40
2019-02-02T01:39:59.793Z,57.40
2019-02-02T01:42:30.282Z,57.23
2019-02-02T01:45:00.858Z,56.87
2019-02-02T01:47:32.962Z,55.50
2019-02-02T01:50:03.437Z,55.60
2019-02-02T01:52:33.878Z,56.20
2019-02-02T01:55:05.352Z,56.03
2019-02-02T01:57:35.932Z,55.10
2019-02-02T02:00:07.830Z,54.80
2019-02-02T02:02:38.381Z,54.93
2019-02-02T02:05:09.070Z,54.70
2019-02-02T02:07:39.686Z,54.77
2019-02-02T02:10:11.227Z,54.23
2019-02-02T02:12:41.744Z,53.57
2019-02-02T02:15:13.794Z,53.87
2019-02-02T02:17:44.724Z,53.53
2019-02-02T02:20:16.452Z,54.10
2019-02-02T02:22:47.576Z,53.57
2019-02-02T02:25:21.417Z,54.40
2019-02-02T02:27:51.928Z,54.10
2019-02-02T02:30:23.830Z,54.10
2019-02-02T02:32:54.925Z,53.27
2019-02-02T02:35:25.577Z,53.40
2019-02-02T02:37:56.341Z,53.40
2019-02-02T02:40:26.882Z,53.10
2019-02-02T02:42:57.660Z,53.83
2019-02-02T02:45:28.329Z,53.37
2019-02-02T02:47:58.804Z,52.53
2019-02-02T02:50:29.333Z,53.23
2019-02-02T02:52:59.860Z,52.67
2019-02-02T02:55:30.376Z,52.47
2019-02-02T02:58:00.901Z,53.37
2019-02-02T03:00:31.436Z,52.17
2019-02-02T03:03:01.788Z,53.10
2019-02-02T03:05:32.431Z,52.37
2019-02-02T03:08:02.998Z,51.50
2019-02-02T03:10:33.549Z,52.17
2019-02-02T03:13:04.610Z,52.00
2019-02-02T03:15:35.028Z,52.17
2019-02-02T03:18:05.517Z,51.57
2019-02-02T03:20:35.971Z,52.47
2019-02-02T03:23:06.476Z,52.07
2019-02-02T03:25:39.679Z,52.23
2019-02-02T03:28:10.168Z,52.43
2019-02-02T03:30:40.598Z,51.47
2019-02-02T03:33:11.240Z,51.90
2019-02-02T03:35:41.684Z,51.67
2019-02-02T03:38:12.091Z,50.57
2019-02-02T03:40:42.645Z,51.30
2019-02-02T03:43:13.168Z,51.17
2019-02-02T03:45:43.548Z,52.30
2019-02-02T03:48:14.012Z,50.57
2019-02-02T03:50:44.866Z,50.40
2019-02-02T03:53:15.339Z,51.30
2019-02-02T03:55:46.095Z,50.67
2019-02-02T03:58:16.576Z,50.73
2019-02-02T04:00:47.261Z,51.30
2019-02-02T04:03:18.106Z,50.27
2019-02-02T04:05:48.622Z,50.03
2019-02-02T04:08:19.164Z,50.50
2019-02-02T04:10:49.735Z,49.87
2019-02-02T04:13:20.317Z,50.87
2019-02-02T04:15:50.728Z,51.03
2019-02-02T04:18:21.199Z,49.73
2019-02-02T04:20:52.056Z,49.17
2019-02-02T04:23:22.665Z,50.27
2019-02-02T04:25:53.187Z,50.47
2019-02-02T04:28:23.621Z,50.70
2019-02-02T04:30:53.974Z,49.57
2019-02-02T04:33:24.657Z,50.07
2019-02-02T04:35:55.181Z,51.30
2019-02-02T04:38:25.812Z,49.97
2019-02-02T04:40:56.290Z,50.57
2019-02-02T04:43:26.680Z,50.73
2019-02-02T04:45:57.037Z,49.83
2019-02-02T04:48:27.532Z,49.83
2019-02-02T04:50:57.902Z,51.47
2019-02-02T04:53:28.434Z,50.17
2019-02-02T04:55:58.909Z,49.77
2019-02-02T04:58:29.369Z,49.30
2019-02-02T05:00:59.828Z,48.73
2019-02-02T05:03:30.318Z,49.77
2019-02-02T05:06:00.709Z,49.33
2019-02-02T05:08:31.186Z,49.07
2019-02-02T05:11:01.879Z,48.67
2019-02-02T05:13:32.325Z,48.67
2019-02-02T05:16:02.684Z,48.70
2019-02-02T05:18:33.150Z,48.37
2019-02-02T05:21:03.702Z,48.73
2019-02-02T05:23:34.213Z,49.33
2019-02-02T05:26:04.717Z,48.17
2019-02-02T05:28:36.227Z,48.73
2019-02-02T05:31:07.045Z,50.27
2019-02-02T05:33:37.690Z,49.47
2019-02-02T05:36:08.046Z,50.13
2019-02-02T05:38:38.767Z,50.37
2019-02-02T05:41:09.204Z,48.57
2019-02-02T05:43:39.737Z,49.87
2019-02-02T05:46:10.481Z,50.90
2019-02-02T05:48:41.046Z,49.47
2019-02-02T05:51:11.550Z,49.87
2019-02-02T05:53:43.591Z,49.47
2019-02-02T05:56:14.101Z,49.83
2019-02-02T05:58:44.556Z,50.40
2019-02-02T06:01:18.456Z,49.87
2019-02-02T06:03:48.917Z,48.97
2019-02-02T06:06:19.600Z,48.53
2019-02-02T06:08:50.065Z,48.30
2019-02-02T06:11:20.476Z,49.03
2019-02-02T06:13:50.859Z,49.67
2019-02-02T06:16:21.637Z,48.97
2019-02-02T06:18:52.169Z,49.97
2019-02-02T06:21:22.850Z,49.70
2019-02-02T06:23:53.337Z,48.67
2019-02-02T06:26:23.746Z,49.27
2019-02-02T06:28:54.208Z,51.07
2019-02-02T06:31:24.608Z,50.03
2019-02-02T06:33:54.993Z,49.77
2019-02-02T06:36:25.345Z,49.20
2019-02-02T06:38:55.727Z,49.43
2019-02-02T06:41:26.534Z,49.37
2019-02-02T06:43:57.015Z,49.53
2019-02-02T06:46:27.469Z,50.70
2019-02-02T06:48:58.009Z,49.47
2019-02-02T06:51:28.606Z,49.17
2019-02-02T06:53:59.205Z,48.90
2019-02-02T06:56:29.631Z,48.63
2019-02-02T06:59:00.092Z,50.07
2019-02-02T07:01:30.777Z,50.37
2019-02-02T07:04:01.213Z,50.13
2019-02-02T07:06:31.756Z,49.73
2019-02-02T07:09:02.222Z,50.10
2019-02-02T07:11:36.087Z,49.77
2019-02-02T07:14:06.789Z,48.70
2019-02-02T07:16:48.542Z,49.33
2019-02-02T07:19:19.141Z,49.17
2019-02-02T07:21:49.636Z,51.57
2019-02-02T07:24:20.098Z,50.43
2019-02-02T07:26:50.618Z,50.90
2019-02-02T07:29:20.992Z,50.00
2019-02-02T07:31:51.476Z,50.20
2019-02-02T07:34:22.314Z,50.60
2019-02-02T07:36:53.097Z,49.43
2019-02-02T07:39:23.558Z,50.00
2019-02-02T07:41:54.001Z,50.43
2019-02-02T07:44:24.475Z,50.17
2019-02-02T07:46:54.987Z,49.57
2019-02-02T07:49:25.463Z,51.00
2019-02-02T07:51:55.969Z,51.43
2019-02-02T07:54:26.592Z,52.07
2019-02-02T07:56:56.979Z,52.17
2019-02-02T07:59:27.481Z,51.23
2019-02-02T08:01:58.147Z,50.47
2019-02-02T08:04:28.574Z,51.77
2019-02-02T08:06:59.048Z,51.23
2019-02-02T08:09:29.591Z,51.00
2019-02-02T08:12:00.049Z,50.37
2019-02-02T08:14:30.587Z,50.33
2019-02-02T08:17:01.121Z,50.70
2019-02-02T08:19:31.605Z,50.53
2019-02-02T08:22:02.204Z,51.87
2019-02-02T08:24:33.059Z,51.07
2019-02-02T08:27:03.604Z,51.40
2019-02-02T08:29:34.153Z,51.83
2019-02-02T08:32:04.825Z,50.77
2019-02-02T08:34:35.398Z,51.60
2019-02-02T08:37:05.934Z,51.03
2019-02-02T08:39:36.482Z,51.90
2019-02-02T08:42:06.945Z,51.60
2019-02-02T08:44:37.498Z,51.37
2019-02-02T08:47:08.135Z,50.80
2019-02-02T08:49:40.390Z,51.10
2019-02-02T08:52:11.033Z,50.77
2019-02-02T08:54:41.526Z,51.07
2019-02-02T08:57:12.127Z,51.70
2019-02-02T08:59:42.537Z,52.13
2019-02-02T09:02:15.998Z,49.50
2019-02-02T09:04:46.472Z,45.60
2019-02-02T09:07:20.276Z,46.87
2019-02-02T09:09:50.867Z,47.27
2019-02-02T09:12:21.549Z,48.87
2019-02-02T09:14:52.193Z,49.00
2019-02-02T09:17:23.659Z,48.93
2019-02-02T09:19:54.151Z,49.80
2019-02-02T09:22:24.676Z,49.27
2019-02-02T09:24:55.175Z,51.50
2019-02-02T09:27:25.685Z,52.67
2019-02-02T09:29:56.229Z,51.87
2019-02-02T09:32:26.965Z,53.43
2019-02-02T09:34:57.565Z,52.37
2019-02-02T09:37:28.170Z,51.33
2019-02-02T09:39:58.680Z,52.40
2019-02-02T09:42:31.277Z,51.23
2019-02-02T09:45:01.898Z,53.80
2019-02-02T09:47:33.536Z,54.17
2019-02-02T09:50:04.895Z,52.80
2019-02-02T09:52:35.499Z,53.50
2019-02-02T09:55:09.882Z,53.67
2019-02-02T09:57:40.588Z,53.93
2019-02-02T10:00:15.726Z,55.37
2019-02-02T10:02:46.569Z,53.77
2019-02-02T10:05:20.280Z,53.90
2019-02-02T10:07:51.731Z,53.17
2019-02-02T10:10:24.478Z,54.73
2019-02-02T10:12:56.383Z,53.87
2019-02-02T10:15:28.128Z,54.07
2019-02-02T10:18:01.848Z,53.53
2019-02-02T10:20:32.674Z,53.53
2019-02-02T10:23:20.562Z,53.40
2019-02-02T10:25:52.873Z,54.00
2019-02-02T10:28:24.638Z,54.37
2019-02-02T10:30:56.070Z,53.20
2019-02-02T10:33:26.702Z,53.73
2019-02-02T10:35:57.299Z,53.30
2019-02-02T10:38:29.508Z,53.87
2019-02-02T10:41:00.749Z,52.87
2019-02-02T10:43:32.315Z,53.23
2019-02-02T10:46:02.916Z,55.03
2019-02-02T10:48:33.559Z,54.07
2019-02-02T10:51:04.245Z,53.83
2019-02-02T10:53:35.645Z,53.80
2019-02-02T10:56:06.605Z,52.37
2019-02-02T10:58:37.152Z,52.93
2019-02-02T11:01:07.897Z,53.73
2019-02-02T11:03:38.607Z,53.37
2019-02-02T11:06:10.630Z,54.47
2019-02-02T11:09:04.246Z,53.10
2019-02-02T11:11:35.786Z,54.27
2019-02-02T11:14:07.985Z,53.53
2019-02-02T11:16:39.762Z,55.60
2019-02-02T11:19:10.340Z,54.83
2019-02-02T11:21:41.188Z,53.20
2019-02-02T11:24:11.856Z,53.83
2019-02-02T11:26:42.529Z,55.57
2019-02-02T11:29:13.291Z,53.40
2019-02-02T11:31:44.020Z,55.23
2019-02-02T11:34:14.775Z,56.20
2019-02-02T11:36:45.460Z,54.27
2019-02-02T11:39:16.282Z,55.10
2019-02-02T11:41:46.898Z,55.20
2019-02-02T11:44:20.003Z,55.70
2019-02-02T11:46:49.732Z,55.73
2019-02-02T11:49:20.294Z,55.10
2019-02-02T11:51:50.923Z,56.43
2019-02-02T11:54:21.511Z,56.17
2019-02-02T11:56:52.003Z,55.20
2019-02-02T11:59:22.914Z,54.53
2019-02-02T12:01:53.447Z,55.37
2019-02-02T12:04:24.082Z,56.40
2019-02-02T12:06:54.691Z,56.40
2019-02-02T12:09:25.166Z,57.85
2019-02-02T12:11:55.740Z,56.73
2019-02-02T12:14:27.829Z,57.70
2019-02-02T12:16:58.401Z,56.37
2019-02-02T12:19:28.980Z,55.87
2019-02-02T12:21:59.522Z,57.73
2019-02-02T12:24:30.117Z,57.17
2019-02-02T12:27:00.751Z,57.62
2019-02-02T12:29:31.249Z,55.75
2019-02-02T12:32:03.273Z,56.58
2019-02-02T12:34:33.881Z,57.05
2019-02-02T12:37:04.400Z,55.33
2019-02-02T12:39:34.902Z,55.52
2019-02-02T12:42:05.444Z,55.98
2019-02-02T12:44:35.957Z,56.90
2019-02-02T12:47:06.513Z,56.25
2019-02-02T12:49:38.672Z,57.23
2019-02-02T12:52:09.253Z,57.60
2019-02-02T12:54:39.715Z,56.05
2019-02-02T12:57:10.226Z,56.42
2019-02-02T12:59:40.778Z,57.30
2019-02-02T13:02:11.380Z,57.10
2019-02-02T13:04:41.974Z,58.30
2019-02-02T13:07:13.887Z,59.43
2019-02-02T13:09:46.979Z,57.35
2019-02-02T13:12:17.274Z,57.23
2019-02-02T13:14:47.855Z,56.60
2019-02-02T13:17:18.451Z,59.10
2019-02-02T13:19:49.064Z,60.23
2019-02-02T13:22:19.762Z,57.90
2019-02-02T13:24:50.394Z,56.75
2019-02-02T13:27:21.194Z,57.05
2019-02-02T13:29:52.211Z,56.80
2019-02-02T13:32:23.601Z,57.75
2019-02-02T13:38:47.972Z,56.68
2019-02-02T13:40:35.006Z,58.03
2019-02-02T13:43:07.520Z,58.30
2019-02-02T13:45:38.060Z,59.35
2019-02-02T13:48:08.574Z,59.50
2019-02-02T13:50:39.277Z,58.03
2019-02-02T13:53:10.324Z,59.23
2019-02-02T13:55:40.717Z,59.40
2019-02-02T13:58:11.930Z,58.37
2019-02-02T14:00:42.396Z,57.50
2019-02-02T14:03:13.649Z,59.77
2019-02-02T14:05:44.126Z,58.97
2019-02-02T14:08:14.673Z,57.45
2019-02-02T14:10:45.265Z,59.43
2019-02-02T14:13:15.763Z,57.88
2019-02-02T14:15:47.597Z,56.55
2019-02-02T14:18:18.146Z,58.30
2019-02-02T14:20:48.882Z,57.17
2019-02-02T14:23:22.565Z,57.70
2019-02-02T14:25:53.308Z,59.73
2019-02-02T14:28:28.463Z,57.73
2019-02-02T14:30:57.943Z,57.38
2019-02-02T14:33:28.889Z,58.33
2019-02-02T14:36:01.838Z,58.57
2019-02-02T14:38:32.142Z,58.90
2019-02-02T14:41:02.701Z,57.98
2019-02-02T14:43:33.419Z,58.08
2019-02-02T14:46:03.946Z,58.33
2019-02-02T14:48:34.555Z,59.30
2019-02-02T14:51:05.150Z,58.75
2019-02-02T14:53:36.071Z,58.58
2019-02-02T14:56:06.588Z,58.80
2019-02-02T14:58:37.134Z,57.90
2019-02-02T15:01:11.914Z,59.53
2019-02-02T15:03:42.624Z,58.08
2019-02-02T15:06:13.228Z,57.73
2019-02-02T15:08:43.925Z,60.20
2019-02-02T15:11:14.532Z,58.92
2019-02-02T15:13:45.080Z,59.35
2019-02-02T15:16:15.685Z,59.90
2019-02-02T15:18:47.054Z,57.60
2019-02-02T15:21:17.599Z,59.50
2019-02-02T15:23:48.206Z,59.13
2019-02-02T15:26:20.057Z,58.83
2019-02-02T15:28:51.536Z,59.43
2019-02-02T15:31:24.425Z,60.80
2019-02-02T15:33:55.143Z,58.90
2019-02-02T15:36:27.359Z,59.50
2019-02-02T15:38:57.974Z,60.17
2019-02-02T15:41:28.810Z,57.93
2019-02-02T15:43:59.623Z,59.90
2019-02-02T15:46:30.396Z,58.07
2019-02-02T15:49:01.116Z,57.30
2019-02-02T15:51:40.110Z,58.77
2019-02-02T15:54:04.529Z,59.53
2019-02-02T15:56:35.065Z,60.10
2019-02-02T15:59:05.647Z,58.70
2019-02-02T16:01:36.218Z,58.77
2019-02-02T16:04:06.969Z,60.10
2019-02-02T16:06:37.469Z,59.13
2019-02-02T16:09:10.106Z,60.07
2019-02-02T16:11:41.104Z,61.80
2019-02-02T16:14:11.802Z,59.10
2019-02-02T16:16:42.539Z,60.97
2019-02-02T16:19:13.205Z,60.80
2019-02-02T16:21:44.258Z,63.53
2019-02-02T16:24:14.826Z,64.00
2019-02-02T16:26:48.693Z,62.50
2019-02-02T16:29:19.816Z,64.93
2019-02-02T16:31:50.392Z,64.40
2019-02-02T16:34:29.731Z,65.07
2019-02-02T16:37:00.343Z,66.67
2019-02-02T16:39:30.864Z,66.83
2019-02-02T16:42:01.539Z,66.57
2019-02-02T16:44:33.626Z,67.33
2019-02-02T16:47:04.692Z,68.77
2019-02-02T16:49:35.329Z,68.30
2019-02-02T16:52:05.905Z,69.57
2019-02-02T16:54:40.822Z,69.43
2019-02-02T16:57:13.892Z,70.57
2019-02-02T16:59:45.574Z,71.50
2019-02-02T17:02:16.381Z,72.77
2019-02-02T17:04:47.040Z,72.20
2019-02-02T17:07:18.101Z,72.40
2019-02-02T17:09:49.836Z,72.93
2019-02-02T17:12:25.877Z,71.97
2019-02-02T17:14:56.674Z,74.73
2019-02-02T17:17:27.446Z,74.10
2019-02-02T17:19:58.640Z,73.80
2019-02-02T17:22:29.169Z,74.83
2019-02-02T17:24:59.812Z,74.30
2019-02-02T17:27:30.530Z,73.67
2019-02-02T17:30:01.224Z,75.60
2019-02-02T17:32:32.201Z,73.33
2019-02-02T17:35:02.857Z,76.03
2019-02-02T17:37:35.378Z,74.00
2019-02-02T17:40:08.612Z,74.57
2019-02-02T17:42:39.490Z,75.37
2019-02-02T17:45:12.643Z,76.07
2019-02-02T17:47:43.215Z,74.73
2019-02-02T17:50:17.006Z,75.67
2019-02-02T17:52:48.112Z,75.87
2019-02-02T17:55:19.222Z,75.77
2019-02-02T17:57:49.843Z,75.67
2019-02-02T18:00:33.220Z,74.67
2019-02-02T18:03:04.098Z,75.23
2019-02-02T18:05:34.616Z,75.97
2019-02-02T18:08:05.606Z,75.37
2019-02-02T18:10:36.192Z,77.07
2019-02-02T18:13:06.890Z,75.07
2019-02-02T18:15:39.907Z,76.07
2019-02-02T18:18:10.748Z,76.73
2019-02-02T18:20:41.529Z,77.50
2019-02-02T18:23:12.282Z,78.43
2019-02-02T18:25:43.102Z,77.20
2019-02-02T18:28:14.704Z,77.37
2019-02-02T18:30:45.380Z,77.23
2019-02-02T18:33:17.533Z,76.70
2019-02-02T18:35:48.043Z,77.83
2019-02-02T18:38:18.572Z,78.37
2019-02-02T18:40:49.081Z,77.23
2019-02-02T18:43:19.559Z,77.67
2019-02-02T18:45:50.123Z,77.47
2019-02-02T18:48:20.784Z,76.27
2019-02-02T18:50:52.117Z,76.87
2019-02-02T18:53:22.772Z,76.63
2019-02-02T18:56:01.001Z,76.27
2019-02-02T18:58:33.070Z,75.83
2019-02-02T19:01:03.682Z,78.90
2019-02-02T19:03:34.357Z,76.00
2019-02-02T19:06:05.408Z,78.50
2019-02-02T19:08:35.950Z,77.43
2019-02-02T19:11:06.823Z,76.53
2019-02-02T19:13:37.396Z,77.60
2019-02-02T19:16:08.088Z,78.27
2019-02-02T19:18:38.681Z,78.43
2019-02-02T19:21:09.329Z,78.77
2019-02-02T19:23:41.005Z,78.47
2019-02-02T19:26:11.607Z,78.60
2019-02-02T19:28:42.225Z,77.77
2019-02-02T19:31:12.853Z,78.30
2019-02-02T19:33:43.458Z,77.87
2019-02-02T19:36:14.029Z,77.90
2019-02-02T19:38:44.663Z,78.30
2019-02-02T19:41:15.199Z,77.37
2019-02-02T19:43:45.776Z,76.47
2019-02-02T19:46:16.705Z,75.37
2019-02-02T19:48:48.903Z,78.43
2019-02-02T19:51:20.281Z,78.27
2019-02-02T19:53:50.938Z,77.83
2019-02-02T19:56:21.502Z,76.13
2019-02-02T19:58:52.136Z,76.50
2019-02-02T20:01:22.682Z,77.57
2019-02-02T20:03:53.174Z,77.87
2019-02-02T20:06:25.373Z,77.97
2019-02-02T20:08:56.106Z,78.43
2019-02-02T20:11:26.681Z,79.00
2019-02-02T20:13:57.267Z,77.60
2019-02-02T20:16:27.830Z,78.50
2019-02-02T20:18:58.375Z,80.03
2019-02-02T20:21:29.298Z,79.93
2019-02-02T20:23:59.942Z,80.37
2019-02-02T20:26:30.555Z,78.03
2019-02-02T20:29:02.326Z,81.37
2019-02-02T20:31:32.786Z,79.37
2019-02-02T20:34:03.625Z,78.00
2019-02-02T20:36:34.380Z,77.97
2019-02-02T20:39:07.730Z,77.33
2019-02-02T20:41:38.563Z,77.40
2019-02-02T20:44:09.171Z,77.40
2019-02-02T20:46:39.931Z,76.73
2019-02-02T20:49:10.504Z,76.67
2019-02-02T20:51:41.084Z,77.47
2019-02-02T20:54:11.681Z,76.53
2019-02-02T20:56:42.714Z,76.50
2019-02-02T20:59:13.327Z,76.20
2019-02-02T21:01:45.871Z,76.80
2019-02-02T21:04:18.117Z,76.53
2019-02-02T21:06:48.681Z,75.43
2019-02-02T21:09:19.337Z,76.03
2019-02-02T21:11:57.202Z,77.47
2019-02-02T21:14:23.569Z,76.10
2019-02-02T21:16:55.977Z,76.03
2019-02-02T21:19:26.913Z,75.10
2019-02-02T21:21:57.541Z,74.73
2019-02-02T21:24:28.126Z,76.83
2019-02-02T21:26:58.707Z,76.17
2019-02-02T21:29:29.340Z,76.80
2019-02-02T21:32:00.282Z,76.30
2019-02-02T21:34:30.912Z,77.47
2019-02-02T21:37:01.552Z,76.00
2019-02-02T21:39:32.346Z,73.83
2019-02-02T21:42:03.031Z,74.67
2019-02-02T21:44:42.829Z,75.60
2019-02-02T21:47:05.796Z,74.70
2019-02-02T21:49:39.378Z,74.33
2019-02-02T21:52:11.241Z,73.77
2019-02-02T21:54:41.792Z,74.40
2019-02-02T21:57:12.361Z,74.27
2019-02-02T21:59:42.949Z,75.57
2019-02-02T22:02:13.488Z,74.40
2019-02-02T22:04:45.645Z,72.47
2019-02-02T22:07:16.616Z,74.63
2019-02-02T22:09:47.108Z,73.90
2019-02-02T22:12:17.946Z,74.47
2019-02-02T22:14:48.666Z,72.87
2019-02-02T22:17:19.252Z,72.43
2019-02-02T22:19:51.103Z,73.27
2019-02-02T22:22:21.807Z,72.47
2019-02-02T22:24:57.372Z,70.67
2019-02-02T22:27:27.894Z,71.50
2019-02-02T22:29:59.913Z,71.60
2019-02-02T22:32:30.964Z,70.80
2019-02-02T22:35:19.802Z,71.53
2019-02-02T22:38:30.223Z,70.50
2019-02-02T22:41:06.828Z,72.77
2019-02-02T22:43:35.908Z,72.07
2019-02-02T22:46:07.773Z,72.03
2019-02-02T22:48:38.349Z,72.33
2019-02-02T22:51:08.880Z,73.33
2019-02-02T22:53:39.421Z,73.03
2019-02-02T22:56:10.345Z,71.83
2019-02-02T22:58:40.840Z,73.43
2019-02-02T23:01:34.167Z,73.60
2019-02-02T23:04:58.429Z,73.30
2019-02-02T23:07:53.511Z,73.87
2019-02-02T23:11:19.428Z,73.30
2019-02-02T23:14:35.065Z,76.20
2019-02-02T23:17:19.565Z,75.47
2019-02-02T23:19:50.306Z,74.47
2019-02-02T23:22:21.002Z,75.03
2019-02-02T23:24:51.731Z,75.37
2019-02-02T23:27:22.347Z,75.53
2019-02-02T23:29:53.841Z,74.87
2019-02-02T23:32:24.413Z,75.17
2019-02-02T23:34:54.997Z,73.30
2019-02-02T23:37:25.484Z,72.70
2019-02-02T23:39:56.052Z,72.07
2019-02-02T23:42:26.602Z,71.90
2019-02-02T23:44:57.143Z,72.87
2019-02-02T23:47:27.614Z,72.43
2019-02-02T23:49:58.100Z,75.73
2019-02-02T23:52:28.688Z,73.73
2019-02-02T23:54:59.223Z,73.90
2019-02-02T23:57:32.472Z,73.80
